Terminal Aerodrome Forecast
Issued by NWS Omaha/Valley, NE

Home | Current Version | Previous Version | Text Only | Print | Product List | Glossary Off
Versions: 1 2 3 4 5 6 7 8 9 10 11 12 13 14 15 16 17 18 19 20 21 22 23 24 25 26 27 28 29 30 31 32 33 34 35 36 37 38 39

000
FTUS43 KOAX 251818 AAA
TAFOFK
TAF AMD
KOFK 251818Z 2518/2618 34018G24KT P6SM SCT028 BKN250
      TEMPO 2518/2520 BKN028
     FM260000 34012KT P6SM SCT250
     FM260100 34004KT P6SM SKC=

USA.gov is the U.S. government's official web portal to all federal, state and local government web resources and services.